sensor_id;sensor_type;location;lat;lon;timestamp;pressure;altitude;pressure_sealevel;temperature;humidity
45369;BME280;51342;55.250;37.668;2023-04-29T05:16:09;99467.81;;;4.27;77.21
45369;BME280;51342;55.250;37.668;2023-04-29T05:18:44;99470.19;;;4.36;77.98
45369;BME280;51342;55.250;37.668;2023-04-29T05:21:16;99470.81;;;4.43;77.72
45369;BME280;51342;55.250;37.668;2023-04-29T05:23:48;99482.81;;;4.44;77.52
45369;BME280;51342;55.250;37.668;2023-04-29T05:26:19;99473.09;;;4.40;77.57
45369;BME280;51342;55.250;37.668;2023-04-29T05:28:51;99486.03;;;4.42;77.89
45369;BME280;51342;55.250;37.668;2023-04-29T05:31:24;99486.50;;;4.48;77.88
45369;BME280;51342;55.250;37.668;2023-04-29T05:33:56;99494.53;;;4.52;77.84
45369;BME280;51342;55.250;37.668;2023-04-29T05:36:29;99506.72;;;4.55;78.27
45369;BME280;51342;55.250;37.668;2023-04-29T05:39:01;99497.25;;;4.54;78.28
45369;BME280;51342;55.250;37.668;2023-04-29T05:41:33;99499.50;;;4.61;78.00
45369;BME280;51342;55.250;37.668;2023-04-29T05:44:27;99496.16;;;4.62;77.90
45369;BME280;51342;55.250;37.668;2023-04-29T05:46:59;99500.19;;;4.70;77.82
45369;BME280;51342;55.250;37.668;2023-04-29T05:49:30;99506.56;;;4.75;77.88
45369;BME280;51342;55.250;37.668;2023-04-29T05:52:02;99506.72;;;4.77;77.72
45369;BME280;51342;55.250;37.668;2023-04-29T05:54:38;99517.28;;;4.82;77.66
45369;BME280;51342;55.250;37.668;2023-04-29T05:57:10;99523.13;;;4.91;77.71
45369;BME280;51342;55.250;37.668;2023-04-29T05:59:54;99527.47;;;4.92;77.54
45369;BME280;51342;55.250;37.668;2023-04-29T06:02:26;99528.19;;;5.01;77.69
45369;BME280;51342;55.250;37.668;2023-04-29T06:04:58;99530.31;;;5.07;77.63
45369;BME280;51342;55.250;37.668;2023-04-29T06:07:43;99535.81;;;5.11;77.67
45369;BME280;51342;55.250;37.668;2023-04-29T06:10:33;99541.81;;;5.12;77.13
45369;BME280;51342;55.250;37.668;2023-04-29T06:13:04;99551.72;;;5.07;77.29
45369;BME280;51342;55.250;37.668;2023-04-29T06:15:36;99553.75;;;5.11;77.36
45369;BME280;51342;55.250;37.668;2023-04-29T06:18:20;99553.75;;;5.11;77.27
45369;BME280;51342;55.250;37.668;2023-04-29T06:20:51;99564.56;;;5.19;77.30
45369;BME280;51342;55.250;37.668;2023-04-29T06:23:22;99558.25;;;5.25;77.28
45369;BME280;51342;55.250;37.668;2023-04-29T06:25:54;99564.84;;;5.34;77.27
45369;BME280;51342;55.250;37.668;2023-04-29T06:28:26;99565.41;;;5.29;76.62
45369;BME280;51342;55.250;37.668;2023-04-29T06:31:10;99579.09;;;5.30;77.15
45369;BME280;51342;55.250;37.668;2023-04-29T06:34:00;99573.66;;;5.37;77.02
45369;BME280;51342;55.250;37.668;2023-04-29T06:36:31;99565.09;;;5.48;77.20
45369;BME280;51342;55.250;37.668;2023-04-29T06:39:35;99570.13;;;5.58;76.58
45369;BME280;51342;55.250;37.668;2023-04-29T06:42:42;99575.81;;;5.54;76.16
45369;BME280;51342;55.250;37.668;2023-04-29T06:45:52;99587.22;;;5.58;76.71
45369;BME280;51342;55.250;37.668;2023-04-29T06:48:33;99589.78;;;5.58;76.41
45369;BME280;51342;55.250;37.668;2023-04-29T06:51:04;99591.44;;;5.57;76.12
45369;BME280;51342;55.250;37.668;2023-04-29T06:53:40;99603.06;;;5.64;76.26
45369;BME280;51342;55.250;37.668;2023-04-29T06:56:11;99588.22;;;5.72;76.03
45369;BME280;51342;55.250;37.668;2023-04-29T06:58:55;99597.75;;;5.84;75.79
45369;BME280;51342;55.250;37.668;2023-04-29T07:01:26;99617.56;;;5.97;76.19
45369;BME280;51342;55.250;37.668;2023-04-29T07:04:09;99610.94;;;6.13;75.56
45369;BME280;51342;55.250;37.668;2023-04-29T07:06:41;99614.09;;;6.32;75.67
45369;BME280;51342;55.250;37.668;2023-04-29T07:09:16;99613.84;;;6.41;75.28
45369;BME280;51342;55.250;37.668;2023-04-29T07:11:48;99606.47;;;6.45;74.87
45369;BME280;51342;55.250;37.668;2023-04-29T07:14:19;99613.63;;;6.49;74.82
45369;BME280;51342;55.250;37.668;2023-04-29T07:16:53;99605.56;;;6.56;74.77
45369;BME280;51342;55.250;37.668;2023-04-29T07:19:25;99613.38;;;6.58;73.71
45369;BME280;51342;55.250;37.668;2023-04-29T07:21:57;99617.09;;;6.50;73.84
45369;BME280;51342;55.250;37.668;2023-04-29T07:24:28;99625.34;;;6.57;74.44
45369;BME280;51342;55.250;37.668;2023-04-29T07:26:59;99621.19;;;6.71;74.83
45369;BME280;51342;55.250;37.668;2023-04-29T07:29:32;99625.50;;;6.84;73.96
45369;BME280;51342;55.250;37.668;2023-04-29T07:32:03;99632.13;;;6.92;73.45
45369;BME280;51342;55.250;37.668;2023-04-29T07:34:34;99633.53;;;7.00;73.21
45369;BME280;51342;55.250;37.668;2023-04-29T07:37:06;99642.78;;;7.10;72.75
45369;BME280;51342;55.250;37.668;2023-04-29T07:39:38;99637.19;;;7.15;72.70
45369;BME280;51342;55.250;37.668;2023-04-29T07:42:10;99645.03;;;7.30;72.46
45369;BME280;51342;55.250;37.668;2023-04-29T07:44:41;99647.38;;;7.39;72.39
45369;BME280;51342;55.250;37.668;2023-04-29T07:47:13;99640.38;;;7.50;71.29
45369;BME280;51342;55.250;37.668;2023-04-29T07:49:45;99644.69;;;7.62;71.50
45369;BME280;51342;55.250;37.668;2023-04-29T07:52:16;99656.03;;;7.78;71.57
45369;BME280;51342;55.250;37.668;2023-04-29T07:54:48;99654.75;;;7.84;71.26
45369;BME280;51342;55.250;37.668;2023-04-29T07:57:19;99654.94;;;7.87;71.05
45369;BME280;51342;55.250;37.668;2023-04-29T07:59:53;99651.00;;;7.92;70.36
45369;BME280;51342;55.250;37.668;2023-04-29T08:02:25;99656.94;;;8.05;71.17
45369;BME280;51342;55.250;37.668;2023-04-29T08:04:58;99651.53;;;8.27;71.67
45369;BME280;51342;55.250;37.668;2023-04-29T08:07:30;99652.97;;;8.48;70.27
45369;BME280;51342;55.250;37.668;2023-04-29T08:10:02;99662.09;;;8.43;67.95
45369;BME280;51342;55.250;37.668;2023-04-29T08:12:34;99659.56;;;8.31;68.77
45369;BME280;51342;55.250;37.668;2023-04-29T08:15:06;99661.56;;;8.35;69.72
45369;BME280;51342;55.250;37.668;2023-04-29T08:17:37;99665.75;;;8.46;69.13
45369;BME280;51342;55.250;37.668;2023-04-29T08:20:09;99668.25;;;8.58;67.11
45369;BME280;51342;55.250;37.668;2023-04-29T08:22:40;99668.72;;;8.66;67.90
45369;BME280;51342;55.250;37.668;2023-04-29T08:25:12;99669.31;;;8.75;65.55
45369;BME280;51342;55.250;37.668;2023-04-29T08:27:43;99663.56;;;8.66;65.38
45369;BME280;51342;55.250;37.668;2023-04-29T08:30:15;99666.34;;;8.69;66.08
45369;BME280;51342;55.250;37.668;2023-04-29T08:32:47;99674.97;;;8.83;66.67
45369;BME280;51342;55.250;37.668;2023-04-29T08:35:19;99672.75;;;8.89;64.80
45369;BME280;51342;55.250;37.668;2023-04-29T08:37:52;99670.38;;;8.79;64.75
45369;BME280;51342;55.250;37.668;2023-04-29T08:40:23;99686.06;;;8.82;64.92
45369;BME280;51342;55.250;37.668;2023-04-29T08:42:56;99683.38;;;8.93;65.03
45369;BME280;51342;55.250;37.668;2023-04-29T08:45:27;99686.59;;;9.17;65.00
45369;BME280;51342;55.250;37.668;2023-04-29T08:48:00;99680.78;;;9.35;63.04
45369;BME280;51342;55.250;37.668;2023-04-29T08:50:40;99685.66;;;9.43;61.99
45369;BME280;51342;55.250;37.668;2023-04-29T08:53:13;99681.38;;;9.44;61.02
45369;BME280;51342;55.250;37.668;2023-04-29T08:55:46;99683.50;;;9.36;60.03
45369;BME280;51342;55.250;37.668;2023-04-29T08:58:17;99687.47;;;9.31;61.18
45369;BME280;51342;55.250;37.668;2023-04-29T09:00:48;99684.63;;;9.41;63.08
45369;BME280;51342;55.250;37.668;2023-04-29T09:05:53;99691.09;;;9.76;61.88
45369;BME280;51342;55.250;37.668;2023-04-29T09:08:25;99696.78;;;9.85;61.12
45369;BME280;51342;55.250;37.668;2023-04-29T09:10:58;99694.28;;;9.87;61.27
45369;BME280;51342;55.250;37.668;2023-04-29T09:13:30;99703.03;;;9.89;59.99
45369;BME280;51342;55.250;37.668;2023-04-29T09:16:14;99704.38;;;9.82;60.61
45369;BME280;51342;55.250;37.668;2023-04-29T09:18:50;99700.50;;;9.75;59.27
45369;BME280;51342;55.250;37.668;2023-04-29T09:21:26;99707.94;;;9.56;57.69
45369;BME280;51342;55.250;37.668;2023-04-29T09:24:02;99716.03;;;9.47;57.69
45369;BME280;51342;55.250;37.668;2023-04-29T09:26:42;99715.59;;;9.54;57.67
45369;BME280;51342;55.250;37.668;2023-04-29T09:29:13;99698.88;;;9.63;59.36
45369;BME280;51342;55.250;37.668;2023-04-29T09:31:46;99704.59;;;9.72;57.85
45369;BME280;51342;55.250;37.668;2023-04-29T09:34:30;99703.28;;;9.78;56.77
45369;BME280;51342;55.250;37.668;2023-04-29T09:37:02;99714.81;;;9.98;56.51
45369;BME280;51342;55.250;37.668;2023-04-29T09:39:39;99721.78;;;9.99;55.62
45369;BME280;51342;55.250;37.668;2023-04-29T09:42:11;99719.44;;;10.04;56.41
45369;BME280;51342;55.250;37.668;2023-04-29T09:44:43;99724.56;;;10.17;56.60
45369;BME280;51342;55.250;37.668;2023-04-29T09:47:15;99709.13;;;10.19;56.16
45369;BME280;51342;55.250;37.668;2023-04-29T09:49:47;99711.00;;;10.21;55.85
45369;BME280;51342;55.250;37.668;2023-04-29T09:52:19;99701.50;;;10.35;55.29
45369;BME280;51342;55.250;37.668;2023-04-29T09:54:52;99706.84;;;10.53;53.36
45369;BME280;51342;55.250;37.668;2023-04-29T09:57:43;99719.75;;;10.53;55.62
45369;BME280;51342;55.250;37.668;2023-04-29T10:00:31;99718.78;;;10.51;54.34
45369;BME280;51342;55.250;37.668;2023-04-29T10:03:04;99732.00;;;10.55;56.31
45369;BME280;51342;55.250;37.668;2023-04-29T10:05:36;99729.13;;;10.66;55.24
45369;BME280;51342;55.250;37.668;2023-04-29T10:08:09;99727.88;;;10.74;53.55
45369;BME280;51342;55.250;37.668;2023-04-29T10:10:52;99729.78;;;10.93;55.75
45369;BME280;51342;55.250;37.668;2023-04-29T10:13:28;99730.91;;;11.12;53.41
45369;BME280;51342;55.250;37.668;2023-04-29T10:18:48;99728.47;;;11.15;50.80
45369;BME280;51342;55.250;37.668;2023-04-29T10:21:30;99737.06;;;11.14;50.89
45369;BME280;51342;55.250;37.668;2023-04-29T10:24:02;99747.22;;;11.26;51.22
45369;BME280;51342;55.250;37.668;2023-04-29T10:26:38;99749.25;;;11.32;50.44
45369;BME280;51342;55.250;37.668;2023-04-29T10:29:10;99739.50;;;11.28;50.09
45369;BME280;51342;55.250;37.668;2023-04-29T10:31:45;99752.06;;;11.20;48.98
45369;BME280;51342;55.250;37.668;2023-04-29T10:34:18;99757.22;;;11.20;48.39
45369;BME280;51342;55.250;37.668;2023-04-29T10:36:50;99748.50;;;11.18;47.87
45369;BME280;51342;55.250;37.668;2023-04-29T10:39:29;99754.38;;;11.15;49.19
45369;BME280;51342;55.250;37.668;2023-04-29T10:42:16;99760.28;;;11.13;48.98
45369;BME280;51342;55.250;37.668;2023-04-29T10:45:19;99758.59;;;10.99;48.40
45369;BME280;51342;55.250;37.668;2023-04-29T10:53:13;99760.16;;;10.66;49.03
45369;BME280;51342;55.250;37.668;2023-04-29T10:56:02;99762.94;;;10.54;48.09
45369;BME280;51342;55.250;37.668;2023-04-29T10:58:42;99761.78;;;10.49;48.66
45369;BME280;51342;55.250;37.668;2023-04-29T11:01:16;99764.81;;;10.42;48.00
45369;BME280;51342;55.250;37.668;2023-04-29T11:03:56;99759.53;;;10.25;47.02
45369;BME280;51342;55.250;37.668;2023-04-29T11:09:19;99762.59;;;10.33;47.75
45369;BME280;51342;55.250;37.668;2023-04-29T11:12:09;99760.81;;;10.61;50.06
45369;BME280;51342;55.250;37.668;2023-04-29T11:14:49;99762.28;;;10.87;49.17
45369;BME280;51342;55.250;37.668;2023-04-29T11:17:22;99762.19;;;11.01;48.66
45369;BME280;51342;55.250;37.668;2023-04-29T11:19:54;99764.75;;;11.15;46.37
45369;BME280;51342;55.250;37.668;2023-04-29T11:22:27;99762.47;;;11.22;46.54
45369;BME280;51342;55.250;37.668;2023-04-29T11:25:07;99774.81;;;11.26;45.30
45369;BME280;51342;55.250;37.668;2023-04-29T11:27:39;99770.50;;;11.26;44.72
45369;BME280;51342;55.250;37.668;2023-04-29T11:30:27;99770.78;;;11.31;44.62
45369;BME280;51342;55.250;37.668;2023-04-29T11:33:24;99772.56;;;11.32;45.16
45369;BME280;51342;55.250;37.668;2023-04-29T11:35:57;99774.72;;;11.24;45.61
45369;BME280;51342;55.250;37.668;2023-04-29T11:38:40;99779.97;;;11.26;45.94
45369;BME280;51342;55.250;37.668;2023-04-29T11:41:12;99772.88;;;11.38;47.43
45369;BME280;51342;55.250;37.668;2023-04-29T11:43:45;99763.19;;;11.50;48.68
45369;BME280;51342;55.250;37.668;2023-04-29T11:46:33;99766.81;;;11.68;48.24
45369;BME280;51342;55.250;37.668;2023-04-29T11:49:04;99763.25;;;11.83;45.23
45369;BME280;51342;55.250;37.668;2023-04-29T11:51:35;99750.88;;;11.93;47.56
45369;BME280;51342;55.250;37.668;2023-04-29T11:54:07;99763.91;;;12.11;46.21
45369;BME280;51342;55.250;37.668;2023-04-29T11:56:39;99758.38;;;12.22;44.83
45369;BME280;51342;55.250;37.668;2023-04-29T11:59:10;99756.94;;;12.27;45.04
45369;BME280;51342;55.250;37.668;2023-04-29T12:01:42;99754.72;;;12.34;45.56
45369;BME280;51342;55.250;37.668;2023-04-29T12:04:13;99756.75;;;12.24;44.04
45369;BME280;51342;55.250;37.668;2023-04-29T12:06:45;99756.88;;;12.09;43.48
45369;BME280;51342;55.250;37.668;2023-04-29T12:09:16;99765.94;;;12.01;43.18
45369;BME280;51342;55.250;37.668;2023-04-29T12:11:49;99770.56;;;11.90;44.07
45369;BME280;51342;55.250;37.668;2023-04-29T12:14:21;99770.63;;;11.75;42.71
45369;BME280;51342;55.250;37.668;2023-04-29T12:16:52;99770.84;;;11.63;42.57
45369;BME280;51342;55.250;37.668;2023-04-29T12:19:24;99774.41;;;11.65;43.50
45369;BME280;51342;55.250;37.668;2023-04-29T12:22:01;99768.84;;;11.74;43.20
45369;BME280;51342;55.250;37.668;2023-04-29T12:24:37;99771.75;;;11.80;40.57
45369;BME280;51342;55.250;37.668;2023-04-29T12:27:09;99756.44;;;11.85;38.70
45369;BME280;51342;55.250;37.668;2023-04-29T12:29:41;99765.22;;;11.87;40.22
45369;BME280;51342;55.250;37.668;2023-04-29T12:32:16;99754.34;;;11.94;42.11
45369;BME280;51342;55.250;37.668;2023-04-29T12:34:49;99757.25;;;12.00;41.68
45369;BME280;51342;55.250;37.668;2023-04-29T12:37:21;99754.53;;;11.97;43.09
45369;BME280;51342;55.250;37.668;2023-04-29T12:39:54;99757.75;;;11.93;40.44
45369;BME280;51342;55.250;37.668;2023-04-29T12:42:31;99754.03;;;11.88;40.04
45369;BME280;51342;55.250;37.668;2023-04-29T12:45:05;99748.91;;;11.89;38.80
45369;BME280;51342;55.250;37.668;2023-04-29T12:47:38;99748.78;;;11.86;40.18
45369;BME280;51342;55.250;37.668;2023-04-29T12:50:09;99759.28;;;11.89;39.08
45369;BME280;51342;55.250;37.668;2023-04-29T12:52:41;99750.47;;;11.86;38.88
45369;BME280;51342;55.250;37.668;2023-04-29T12:55:12;99746.06;;;11.85;39.07
45369;BME280;51342;55.250;37.668;2023-04-29T12:57:43;99750.56;;;11.87;39.66
45369;BME280;51342;55.250;37.668;2023-04-29T13:00:16;99755.16;;;11.93;38.86
45369;BME280;51342;55.250;37.668;2023-04-29T13:02:50;99751.75;;;11.94;38.40
45369;BME280;51342;55.250;37.668;2023-04-29T13:05:22;99749.00;;;11.91;37.96
45369;BME280;51342;55.250;37.668;2023-04-29T13:07:53;99747.22;;;11.90;41.30
45369;BME280;51342;55.250;37.668;2023-04-29T13:10:24;99735.72;;;11.85;42.49
45369;BME280;51342;55.250;37.668;2023-04-29T13:12:56;99743.16;;;11.95;43.12
45369;BME280;51342;55.250;37.668;2023-04-29T13:15:27;99742.47;;;11.98;40.30
45369;BME280;51342;55.250;37.668;2023-04-29T13:17:58;99751.03;;;11.97;39.89
45369;BME280;51342;55.250;37.668;2023-04-29T13:20:30;99751.84;;;11.96;40.31
45369;BME280;51342;55.250;37.668;2023-04-29T13:23:03;99748.91;;;11.89;39.83
45369;BME280;51342;55.250;37.668;2023-04-29T13:25:36;99750.69;;;11.90;39.28
45369;BME280;51342;55.250;37.668;2023-04-29T13:28:07;99755.00;;;11.90;39.60
45369;BME280;51342;55.250;37.668;2023-04-29T13:30:38;99750.56;;;11.87;38.44
45369;BME280;51342;55.250;37.668;2023-04-29T13:33:10;99749.41;;;11.82;40.64
45369;BME280;51342;55.250;37.668;2023-04-29T13:35:41;99748.41;;;11.80;40.46
45369;BME280;51342;55.250;37.668;2023-04-29T13:38:12;99750.75;;;11.76;40.31
45369;BME280;51342;55.250;37.668;2023-04-29T13:40:44;99755.06;;;11.75;40.14
45369;BME280;51342;55.250;37.668;2023-04-29T13:43:16;99755.69;;;11.71;39.57
45369;BME280;51342;55.250;37.668;2023-04-29T13:45:47;99756.34;;;11.67;40.34
45369;BME280;51342;55.250;37.668;2023-04-29T13:48:19;99754.47;;;11.64;40.15
45369;BME280;51342;55.250;37.668;2023-04-29T13:50:51;99750.69;;;11.58;40.87
45369;BME280;51342;55.250;37.668;2023-04-29T13:53:22;99743.69;;;11.57;39.93
45369;BME280;51342;55.250;37.668;2023-04-29T13:55:54;99746.38;;;11.58;39.70
45369;BME280;51342;55.250;37.668;2023-04-29T13:58:25;99746.28;;;11.57;40.33
45369;BME280;51342;55.250;37.668;2023-04-29T14:00:57;99747.91;;;11.55;39.51
45369;BME280;51342;55.250;37.668;2023-04-29T14:03:28;99741.75;;;11.53;40.24
45369;BME280;51342;55.250;37.668;2023-04-29T14:06:18;99747.50;;;11.47;39.69
45369;BME280;51342;55.250;37.668;2023-04-29T14:08:49;99744.81;;;11.46;39.69
45369;BME280;51342;55.250;37.668;2023-04-29T14:11:21;99740.53;;;11.46;39.72
45369;BME280;51342;55.250;37.668;2023-04-29T14:13:52;99745.78;;;11.48;39.54
45369;BME280;51342;55.250;37.668;2023-04-29T14:16:23;99745.72;;;11.46;39.23
45369;BME280;51342;55.250;37.668;2023-04-29T14:18:55;99746.63;;;11.47;38.98
45369;BME280;51342;55.250;37.668;2023-04-29T14:21:26;99755.09;;;11.44;37.93
45369;BME280;51342;55.250;37.668;2023-04-29T14:24:01;99734.03;;;11.38;39.12
45369;BME280;51342;55.250;37.668;2023-04-29T14:26:33;99739.22;;;11.38;39.69
45369;BME280;51342;55.250;37.668;2023-04-29T14:29:04;99737.50;;;11.38;38.84
45369;BME280;51342;55.250;37.668;2023-04-29T14:31:36;99737.44;;;11.37;38.87
45369;BME280;51342;55.250;37.668;2023-04-29T14:34:10;99747.81;;;11.37;39.14
45369;BME280;51342;55.250;37.668;2023-04-29T14:36:41;99746.66;;;11.32;38.91
45369;BME280;51342;55.250;37.668;2023-04-29T14:39:12;99734.34;;;11.28;39.51
45369;BME280;51342;55.250;37.668;2023-04-29T14:41:44;99734.25;;;11.26;39.50
45369;BME280;51342;55.250;37.668;2023-04-29T14:44:16;99727.22;;;11.24;39.43
45369;BME280;51342;55.250;37.668;2023-04-29T14:46:47;99740.19;;;11.24;39.61
45369;BME280;51342;55.250;37.668;2023-04-29T14:49:18;99738.38;;;11.23;38.94
45369;BME280;51342;55.250;37.668;2023-04-29T14:51:50;99737.41;;;11.21;39.09
45369;BME280;51342;55.250;37.668;2023-04-29T14:54:21;99747.94;;;11.24;38.66
45369;BME280;51342;55.250;37.668;2023-04-29T14:56:53;99746.25;;;11.24;37.92
45369;BME280;51342;55.250;37.668;2023-04-29T14:59:24;99744.34;;;11.22;38.12
45369;BME280;51342;55.250;37.668;2023-04-29T15:01:56;99742.50;;;11.19;38.13
45369;BME280;51342;55.250;37.668;2023-04-29T15:04:27;99743.31;;;11.18;38.71
45369;BME280;51342;55.250;37.668;2023-04-29T15:06:59;99745.03;;;11.18;39.24
45369;BME280;51342;55.250;37.668;2023-04-29T15:09:30;99750.91;;;11.15;38.90
45369;BME280;51342;55.250;37.668;2023-04-29T15:12:02;99743.75;;;11.11;38.60
45369;BME280;51342;55.250;37.668;2023-04-29T15:14:34;99749.81;;;11.11;39.00
45369;BME280;51342;55.250;37.668;2023-04-29T15:17:05;99747.97;;;11.09;38.75
45369;BME280;51342;55.250;37.668;2023-04-29T15:19:37;99744.22;;;11.04;38.25
45369;BME280;51342;55.250;37.668;2023-04-29T15:22:09;99745.19;;;11.06;38.15
45369;BME280;51342;55.250;37.668;2023-04-29T15:24:40;99748.53;;;11.03;38.62
45369;BME280;51342;55.250;37.668;2023-04-29T15:27:12;99747.44;;;11.00;39.18
45369;BME280;51342;55.250;37.668;2023-04-29T15:29:45;99748.00;;;10.94;39.54
45369;BME280;51342;55.250;37.668;2023-04-29T15:32:17;99741.03;;;10.93;39.24
45369;BME280;51342;55.250;37.668;2023-04-29T15:34:49;99735.78;;;10.92;38.89
45369;BME280;51342;55.250;37.668;2023-04-29T15:37:20;99744.25;;;10.89;38.93
45369;BME280;51342;55.250;37.668;2023-04-29T15:39:52;99743.22;;;10.85;38.48
45369;BME280;51342;55.250;37.668;2023-04-29T15:42:24;99751.59;;;10.81;38.71
45369;BME280;51342;55.250;37.668;2023-04-29T15:44:55;99751.50;;;10.80;38.41
45369;BME280;51342;55.250;37.668;2023-04-29T15:47:27;99743.56;;;10.77;38.88
45369;BME280;51342;55.250;37.668;2023-04-29T15:49:58;99746.88;;;10.74;38.19
45369;BME280;51342;55.250;37.668;2023-04-29T15:52:29;99750.91;;;10.69;38.30
45369;BME280;51342;55.250;37.668;2023-04-29T15:55:01;99747.34;;;10.67;38.67
45369;BME280;51342;55.250;37.668;2023-04-29T15:57:32;99750.47;;;10.61;39.52
45369;BME280;51342;55.250;37.668;2023-04-29T16:00:05;99754.47;;;10.56;40.01
45369;BME280;51342;55.250;37.668;2023-04-29T16:02:37;99758.41;;;10.50;39.12
45369;BME280;51342;55.250;37.668;2023-04-29T16:05:09;99758.06;;;10.44;39.89
45369;BME280;51342;55.250;37.668;2023-04-29T16:07:40;99754.38;;;10.40;41.95
45369;BME280;51342;55.250;37.668;2023-04-29T16:10:11;99760.91;;;10.33;42.01
45369;BME280;51342;55.250;37.668;2023-04-29T16:12:43;99764.09;;;10.29;43.57
45369;BME280;51342;55.250;37.668;2023-04-29T16:15:14;99759.34;;;10.22;42.35
45369;BME280;51342;55.250;37.668;2023-04-29T16:17:46;99775.38;;;10.17;43.38
45369;BME280;51342;55.250;37.668;2023-04-29T16:20:17;99770.59;;;10.09;43.18
45369;BME280;51342;55.250;37.668;2023-04-29T16:22:49;99772.94;;;10.05;44.14
45369;BME280;51342;55.250;37.668;2023-04-29T16:25:20;99770.00;;;9.99;43.99
45369;BME280;51342;55.250;37.668;2023-04-29T16:27:52;99778.16;;;9.92;44.69
45369;BME280;51342;55.250;37.668;2023-04-29T16:30:24;99786.25;;;9.83;45.36
45369;BME280;51342;55.250;37.668;2023-04-29T16:32:55;99789.13;;;9.74;45.92
45369;BME280;51342;55.250;37.668;2023-04-29T16:35:26;99786.00;;;9.65;46.68
45369;BME280;51342;55.250;37.668;2023-04-29T16:38:00;99788.72;;;9.53;46.85
45369;BME280;51342;55.250;37.668;2023-04-29T16:40:31;99790.41;;;9.40;47.92
45369;BME280;51342;55.250;37.668;2023-04-29T16:43:03;99801.84;;;9.30;48.49
45369;BME280;51342;55.250;37.668;2023-04-29T16:45:34;99805.63;;;9.22;48.73
45369;BME280;51342;55.250;37.668;2023-04-29T16:48:06;99803.97;;;9.09;49.50
45369;BME280;51342;55.250;37.668;2023-04-29T16:50:38;99800.69;;;8.98;50.69
45369;BME280;51342;55.250;37.668;2023-04-29T16:53:09;99801.59;;;8.86;51.19
45369;BME280;51342;55.250;37.668;2023-04-29T16:55:40;99810.50;;;8.77;52.10
45369;BME280;51342;55.250;37.668;2023-04-29T16:58:12;99803.53;;;8.63;54.02
45369;BME280;51342;55.250;37.668;2023-04-29T17:00:43;99818.97;;;8.50;54.90
45369;BME280;51342;55.250;37.668;2023-04-29T17:03:15;99812.09;;;8.37;55.75
45369;BME280;51342;55.250;37.668;2023-04-29T17:05:59;99819.06;;;8.27;56.67
45369;BME280;51342;55.250;37.668;2023-04-29T17:08:30;99818.13;;;8.13;57.57
45369;BME280;51342;55.250;37.668;2023-04-29T17:11:03;99814.81;;;8.02;57.91
45369;BME280;51342;55.250;37.668;2023-04-29T17:13:35;99821.81;;;7.91;58.61
45369;BME280;51342;55.250;37.668;2023-04-29T17:16:06;99820.16;;;7.80;58.75
45369;BME280;51342;55.250;37.668;2023-04-29T17:18:38;99822.06;;;7.71;58.85
45369;BME280;51342;55.250;37.668;2023-04-29T17:21:09;99819.88;;;7.64;59.23
45369;BME280;51342;55.250;37.668;2023-04-29T17:23:41;99830.63;;;7.58;59.30
45369;BME280;51342;55.250;37.668;2023-04-29T17:26:12;99823.91;;;7.49;60.23
45369;BME280;51342;55.250;37.668;2023-04-29T17:28:43;99826.41;;;7.35;60.19
45369;BME280;51342;55.250;37.668;2023-04-29T17:31:15;99834.59;;;7.30;60.40
45369;BME280;51342;55.250;37.668;2023-04-29T17:33:47;99837.63;;;7.24;60.38
45369;BME280;51342;55.250;37.668;2023-04-29T17:36:34;99841.09;;;7.13;60.73
45369;BME280;51342;55.250;37.668;2023-04-29T17:39:06;99849.69;;;7.02;61.24
45369;BME280;51342;55.250;37.668;2023-04-29T17:41:40;99851.25;;;6.88;61.72
45369;BME280;51342;55.250;37.668;2023-04-29T17:44:11;99854.81;;;6.78;61.83
45369;BME280;51342;55.250;37.668;2023-04-29T17:46:42;99865.19;;;6.68;62.17
45369;BME280;51342;55.250;37.668;2023-04-29T17:49:14;99865.53;;;6.61;62.09
45369;BME280;51342;55.250;37.668;2023-04-29T17:51:45;99861.25;;;6.50;62.71
45369;BME280;51342;55.250;37.668;2023-04-29T17:54:17;99867.34;;;6.40;62.92
45369;BME280;51342;55.250;37.668;2023-04-29T17:56:48;99863.97;;;6.29;63.40
45369;BME280;51342;55.250;37.668;2023-04-29T17:59:20;99861.59;;;6.21;63.57
45369;BME280;51342;55.250;37.668;2023-04-29T18:01:51;99861.03;;;6.13;63.88
45369;BME280;51342;55.250;37.668;2023-04-29T18:04:22;99864.91;;;6.08;63.79
45369;BME280;51342;55.250;37.668;2023-04-29T18:06:54;99860.19;;;6.02;63.87
45369;BME280;51342;55.250;37.668;2023-04-29T18:09:25;99870.75;;;5.95;63.98
45369;BME280;51342;55.250;37.668;2023-04-29T18:11:56;99866.56;;;5.85;64.16
45369;BME280;51342;55.250;37.668;2023-04-29T18:14:28;99882.13;;;5.77;63.88
45369;BME280;51342;55.250;37.668;2023-04-29T18:17:01;99878.06;;;5.69;64.12
45369;BME280;51342;55.250;37.668;2023-04-29T18:19:32;99884.25;;;5.61;64.66
45369;BME280;51342;55.250;37.668;2023-04-29T18:22:04;99886.88;;;5.50;64.95
45369;BME280;51342;55.250;37.668;2023-04-29T18:24:36;99896.75;;;5.46;65.28
45369;BME280;51342;55.250;37.668;2023-04-29T18:27:07;99896.13;;;5.38;65.10
45369;BME280;51342;55.250;37.668;2023-04-29T18:29:39;99902.31;;;5.30;65.57
45369;BME280;51342;55.250;37.668;2023-04-29T18:32:10;99909.41;;;5.22;65.68
45369;BME280;51342;55.250;37.668;2023-04-29T18:34:41;99926.31;;;5.20;65.71
45369;BME280;51342;55.250;37.668;2023-04-29T18:37:13;99911.31;;;5.15;65.66
45369;BME280;51342;55.250;37.668;2023-04-29T18:39:44;99925.19;;;5.17;65.46
45369;BME280;51342;55.250;37.668;2023-04-29T18:42:15;99920.19;;;5.08;65.62
45369;BME280;51342;55.250;37.668;2023-04-29T18:44:47;99935.34;;;5.05;65.69
45369;BME280;51342;55.250;37.668;2023-04-29T18:47:31;99945.72;;;4.96;65.95
45369;BME280;51342;55.250;37.668;2023-04-29T18:50:02;99936.50;;;4.88;66.14
45369;BME280;51342;55.250;37.668;2023-04-29T18:52:34;99943.94;;;4.85;66.55
45369;BME280;51342;55.250;37.668;2023-04-29T18:55:06;99946.38;;;4.84;66.83
45369;BME280;51342;55.250;37.668;2023-04-29T18:57:38;99941.13;;;4.72;66.91